This is the latest recevied weather packets stored in our database for station/object dl1wer-13. If no packets are shown the sender has not sent any weather packets the latest 10 day(s).
| Time | Temp. | Humidity | Pressure | Rain* | Wind** | Luminosity | Snow |
|---|---|---|---|---|---|---|---|
| 1777605018 | 3.89° C | 58% | 1050.9 hPa | 0 mm | - | - | - |
| 1777604418 | 3.33° C | 58% | 1050.9 hPa | 0 mm | - | - | - |
| 1777603819 | 3.89° C | 58% | 1050.9 hPa | 0 mm | - | - | - |
| 1777603218 | 4.44° C | 56% | 1051 hPa | 0 mm | - | - | - |
| 1777602618 | 4.44° C | 56% | 1050.9 hPa | 0 mm | - | - | - |
| 1777602017 | 5° C | 53% | 1050.8 hPa | 0 mm | - | - | - |
| 1777601417 | 5.56° C | 52% | 1050.7 hPa | 0 mm | - | - | - |
| 1777600818 | 5.56° C | 51% | 1050.8 hPa | 0 mm | - | - | - |
| 1777600218 | 5.56° C | 52% | 1050.6 hPa | 0 mm | - | - | - |
| 1777599618 | 5° C | 53% | 1051 hPa | 0 mm | - | - | - |
| 1777599018 | 5° C | 54% | 1051 hPa | 0 mm | - | - | - |
| 1777598418 | 5.56° C | 52% | 1051.1 hPa | 0 mm | - | - | - |
| 1777597817 | 5.56° C | 51% | 1051.1 hPa | 0 mm | - | - | - |
| 1777597218 | 6.11° C | 48% | 1050.9 hPa | 0 mm | - | - | - |
| 1777596618 | 6.67° C | 45% | 1051.1 hPa | 0 mm | - | - | - |
| 1777596018 | 7.22° C | 44% | 1051.2 hPa | 0 mm | - | - | - |
| 1777595418 | 7.22° C | 43% | 1050.9 hPa | 0 mm | - | - | - |
| 1777594817 | 7.78° C | 36% | 1051.2 hPa | 0 mm | - | - | - |
| 1777594218 | 7.78° C | 36% | 1050.8 hPa | 0 mm | - | - | - |
| 1777593619 | 7.78° C | 36% | 1051 hPa | 0 mm | - | - | - |
| 1777593017 | 7.78° C | 36% | 1051.1 hPa | 0 mm | - | - | - |
| 1777592417 | 7.78° C | 36% | 1050.9 hPa | 0 mm | - | - | - |
| 1777591818 | 7.78° C | 37% | 1050.8 hPa | 0 mm | - | - | - |
| 1777591218 | 7.78° C | 37% | 1051.2 hPa | 0 mm | - | - | - |
| 1777590617 | 7.78° C | 38% | 1051.2 hPa | 0 mm | - | - | - |
* Rain latest hour (hover to see other rain measurements)
** Current wind speed in m/s (hover to see current wind gust speed)